Airport View

Enter AWOS ICAO identifier for current METAR.

ex. KFNL

KLCI 051256Z AUTO 22008KT 10SM CLR 23/19 A2996 RMK AO2 SLP143 T02280189

5 Aug 2020 14:02

Frequency: 133.525

Phone: 603-524-5134

Other Area AWOS: K1P1 - KCON - KDAW - KIZG

KCON 051132Z 0512/0612 20005KT P6SM SKC FM051800 22009G15KT P6SM FEW250 FM052300 VRB03KT P6SM SCT250